sensor_id;sensor_type;location;lat;lon;timestamp;pressure;altitude;pressure_sealevel;temperature;humidity
12172;BME280;6149;52.418;13.668;2023-04-26T00:00:03;100888.00;;;5.06;82.12
12172;BME280;6149;52.418;13.668;2023-04-26T00:02:34;100892.41;;;5.03;82.17
12172;BME280;6149;52.418;13.668;2023-04-26T00:05:03;100888.31;;;4.93;83.67
12172;BME280;6149;52.418;13.668;2023-04-26T00:07:33;100888.91;;;5.04;82.66
12172;BME280;6149;52.418;13.668;2023-04-26T00:10:04;100886.50;;;4.95;83.70
12172;BME280;6149;52.418;13.668;2023-04-26T00:12:34;100900.66;;;4.88;83.78
12172;BME280;6149;52.418;13.668;2023-04-26T00:15:03;100901.41;;;4.93;83.80
12172;BME280;6149;52.418;13.668;2023-04-26T00:17:32;100894.44;;;4.92;83.52
12172;BME280;6149;52.418;13.668;2023-04-26T00:19:59;100898.91;;;4.89;84.51
12172;BME280;6149;52.418;13.668;2023-04-26T00:22:29;100897.34;;;4.82;84.93
12172;BME280;6149;52.418;13.668;2023-04-26T00:24:58;100895.53;;;4.84;84.01
12172;BME280;6149;52.418;13.668;2023-04-26T00:27:25;100904.38;;;4.80;84.56
12172;BME280;6149;52.418;13.668;2023-04-26T00:30:08;100907.19;;;4.72;85.52
12172;BME280;6149;52.418;13.668;2023-04-26T00:32:36;100897.50;;;4.76;85.85
12172;BME280;6149;52.418;13.668;2023-04-26T00:35:05;100898.38;;;4.76;85.31
12172;BME280;6149;52.418;13.668;2023-04-26T00:37:35;100895.94;;;4.68;85.90
12172;BME280;6149;52.418;13.668;2023-04-26T00:40:04;100895.97;;;4.67;86.91
12172;BME280;6149;52.418;13.668;2023-04-26T00:42:36;100899.53;;;4.63;86.28
12172;BME280;6149;52.418;13.668;2023-04-26T00:45:18;100898.78;;;4.58;86.99
12172;BME280;6149;52.418;13.668;2023-04-26T00:47:46;100901.56;;;4.52;87.70
12172;BME280;6149;52.418;13.668;2023-04-26T00:50:14;100901.56;;;4.52;87.56
12172;BME280;6149;52.418;13.668;2023-04-26T00:52:44;100899.88;;;4.49;88.35
12172;BME280;6149;52.418;13.668;2023-04-26T00:55:13;100897.25;;;4.49;89.21
12172;BME280;6149;52.418;13.668;2023-04-26T00:57:43;100904.13;;;4.53;89.02
12172;BME280;6149;52.418;13.668;2023-04-26T01:00:14;100902.97;;;4.66;88.35
12172;BME280;6149;52.418;13.668;2023-04-26T01:02:42;100902.41;;;4.52;88.62
12172;BME280;6149;52.418;13.668;2023-04-26T01:05:10;100909.53;;;4.46;89.46
12172;BME280;6149;52.418;13.668;2023-04-26T01:07:39;100902.41;;;4.52;89.63
12172;BME280;6149;52.418;13.668;2023-04-26T01:10:07;100906.91;;;4.47;89.38
12172;BME280;6149;52.418;13.668;2023-04-26T01:12:34;100908.00;;;4.39;89.70
12172;BME280;6149;52.418;13.668;2023-04-26T01:15:06;100915.09;;;4.33;89.84
12172;BME280;6149;52.418;13.668;2023-04-26T01:17:36;100912.38;;;4.38;90.77
12172;BME280;6149;52.418;13.668;2023-04-26T01:20:06;100908.13;;;4.32;91.51
12172;BME280;6149;52.418;13.668;2023-04-26T01:22:39;100903.00;;;4.28;91.70
12172;BME280;6149;52.418;13.668;2023-04-26T01:25:10;100902.88;;;4.32;91.58
12172;BME280;6149;52.418;13.668;2023-04-26T01:27:38;100905.56;;;4.29;90.66
12172;BME280;6149;52.418;13.668;2023-04-26T01:30:08;100913.50;;;4.26;90.92
12172;BME280;6149;52.418;13.668;2023-04-26T01:32:36;100911.84;;;4.22;91.59
12172;BME280;6149;52.418;13.668;2023-04-26T01:35:04;100914.63;;;4.15;92.58
12172;BME280;6149;52.418;13.668;2023-04-26T01:37:33;100919.16;;;4.08;93.31
12172;BME280;6149;52.418;13.668;2023-04-26T01:40:03;100927.81;;;4.09;93.48
12172;BME280;6149;52.418;13.668;2023-04-26T01:42:32;100924.38;;;4.08;93.31
12172;BME280;6149;52.418;13.668;2023-04-26T01:45:00;100932.13;;;4.11;92.77
12172;BME280;6149;52.418;13.668;2023-04-26T01:47:28;100931.50;;;4.01;93.53
12172;BME280;6149;52.418;13.668;2023-04-26T01:49:57;100934.16;;;4.00;94.50
12172;BME280;6149;52.418;13.668;2023-04-26T01:52:26;100936.81;;;3.97;94.33
12172;BME280;6149;52.418;13.668;2023-04-26T01:55:08;100937.81;;;3.91;94.56
12172;BME280;6149;52.418;13.668;2023-04-26T01:57:36;100943.09;;;3.88;94.76
12172;BME280;6149;52.418;13.668;2023-04-26T02:00:05;100932.38;;;4.00;95.52
12172;BME280;6149;52.418;13.668;2023-04-26T02:02:34;100928.19;;;3.92;95.39
12172;BME280;6149;52.418;13.668;2023-04-26T02:05:02;100933.25;;;4.01;94.48
12172;BME280;6149;52.418;13.668;2023-04-26T02:07:30;100932.50;;;3.94;95.30
12172;BME280;6149;52.418;13.668;2023-04-26T02:09:58;100931.78;;;3.88;96.11
12172;BME280;6149;52.418;13.668;2023-04-26T02:12:32;100925.59;;;3.92;95.62
12172;BME280;6149;52.418;13.668;2023-04-26T02:15:00;100932.78;;;3.81;95.62
12172;BME280;6149;52.418;13.668;2023-04-26T02:17:28;100924.88;;;3.84;95.87
12172;BME280;6149;52.418;13.668;2023-04-26T02:19:56;100924.75;;;3.90;95.49
12172;BME280;6149;52.418;13.668;2023-04-26T02:22:26;100927.47;;;3.85;96.26
12172;BME280;6149;52.418;13.668;2023-04-26T02:24:55;100923.25;;;3.78;96.43
12172;BME280;6149;52.418;13.668;2023-04-26T02:27:26;100926.91;;;3.71;97.99
12172;BME280;6149;52.418;13.668;2023-04-26T02:30:01;100923.47;;;3.67;98.18
12172;BME280;6149;52.418;13.668;2023-04-26T02:32:29;100924.94;;;3.81;97.35
12172;BME280;6149;52.418;13.668;2023-04-26T02:34:57;100923.28;;;3.77;97.69
12172;BME280;6149;52.418;13.668;2023-04-26T02:37:28;100931.09;;;3.78;97.12
12172;BME280;6149;52.418;13.668;2023-04-26T02:39:56;100925.94;;;3.74;97.91
12172;BME280;6149;52.418;13.668;2023-04-26T02:42:25;100931.16;;;3.74;98.17
12172;BME280;6149;52.418;13.668;2023-04-26T02:44:53;100930.50;;;3.65;98.31
12172;BME280;6149;52.418;13.668;2023-04-26T02:47:22;100929.56;;;3.68;98.54
12172;BME280;6149;52.418;13.668;2023-04-26T02:49:51;100922.56;;;3.70;98.84
12172;BME280;6149;52.418;13.668;2023-04-26T02:52:19;100927.78;;;3.70;99.11
12172;BME280;6149;52.418;13.668;2023-04-26T02:54:47;100928.69;;;3.69;98.83
12172;BME280;6149;52.418;13.668;2023-04-26T02:57:14;100923.31;;;3.74;98.90
12172;BME280;6149;52.418;13.668;2023-04-26T02:59:42;100927.53;;;3.81;97.41
12172;BME280;6149;52.418;13.668;2023-04-26T03:02:10;100920.88;;;3.67;98.32
12172;BME280;6149;52.418;13.668;2023-04-26T03:04:39;100924.34;;;3.68;99.35
12172;BME280;6149;52.418;13.668;2023-04-26T03:07:07;100932.38;;;3.57;99.93
12172;BME280;6149;52.418;13.668;2023-04-26T03:09:37;100935.06;;;3.54;100.00
12172;BME280;6149;52.418;13.668;2023-04-26T03:12:05;100930.78;;;3.50;100.00
12172;BME280;6149;52.418;13.668;2023-04-26T03:14:35;100928.28;;;3.43;100.00
12172;BME280;6149;52.418;13.668;2023-04-26T03:17:03;100927.41;;;3.44;100.00
12172;BME280;6149;52.418;13.668;2023-04-26T03:19:31;100928.34;;;3.40;100.00
12172;BME280;6149;52.418;13.668;2023-04-26T03:22:00;100930.00;;;3.45;100.00
12172;BME280;6149;52.418;13.668;2023-04-26T03:24:27;100934.47;;;3.39;100.00
12172;BME280;6149;52.418;13.668;2023-04-26T03:27:03;100935.28;;;3.42;100.00
12172;BME280;6149;52.418;13.668;2023-04-26T03:29:31;100937.19;;;3.34;100.00
12172;BME280;6149;52.418;13.668;2023-04-26T03:31:59;100939.72;;;3.37;100.00
12172;BME280;6149;52.418;13.668;2023-04-26T03:34:28;100937.13;;;3.35;100.00
12172;BME280;6149;52.418;13.668;2023-04-26T03:36:55;100946.88;;;3.29;100.00
12172;BME280;6149;52.418;13.668;2023-04-26T03:39:30;100940.88;;;3.22;100.00
12172;BME280;6149;52.418;13.668;2023-04-26T03:41:59;100945.19;;;3.25;100.00
12172;BME280;6149;52.418;13.668;2023-04-26T03:44:29;100950.44;;;3.23;100.00
12172;BME280;6149;52.418;13.668;2023-04-26T03:46:58;100946.22;;;3.16;100.00
12172;BME280;6149;52.418;13.668;2023-04-26T03:49:27;100952.41;;;3.11;100.00
12172;BME280;6149;52.418;13.668;2023-04-26T03:51:59;100949.84;;;3.06;100.00
12172;BME280;6149;52.418;13.668;2023-04-26T03:54:40;100952.47;;;3.06;100.00
12172;BME280;6149;52.418;13.668;2023-04-26T03:57:08;100955.06;;;3.08;100.00
12172;BME280;6149;52.418;13.668;2023-04-26T03:59:35;100959.41;;;3.07;100.00
12172;BME280;6149;52.418;13.668;2023-04-26T04:02:04;100954.22;;;3.06;100.00
12172;BME280;6149;52.418;13.668;2023-04-26T04:04:31;100950.72;;;3.07;100.00
12172;BME280;6149;52.418;13.668;2023-04-26T04:06:59;100955.94;;;3.07;100.00
12172;BME280;6149;52.418;13.668;2023-04-26T04:09:29;100958.56;;;3.07;100.00
12172;BME280;6149;52.418;13.668;2023-04-26T04:11:56;100964.75;;;2.99;100.00
12172;BME280;6149;52.418;13.668;2023-04-26T04:14:27;100964.84;;;2.96;100.00
12172;BME280;6149;52.418;13.668;2023-04-26T04:17:03;100962.22;;;2.96;100.00
12172;BME280;6149;52.418;13.668;2023-04-26T04:19:30;100958.44;;;3.14;100.00
12172;BME280;6149;52.418;13.668;2023-04-26T04:21:58;100963.75;;;3.08;100.00
12172;BME280;6149;52.418;13.668;2023-04-26T04:24:31;100962.06;;;3.04;100.00
12172;BME280;6149;52.418;13.668;2023-04-26T04:26:59;100966.47;;;3.02;100.00
12172;BME280;6149;52.418;13.668;2023-04-26T04:29:29;100972.44;;;3.09;100.00
12172;BME280;6149;52.418;13.668;2023-04-26T04:31:57;100975.06;;;3.09;100.00
12172;BME280;6149;52.418;13.668;2023-04-26T04:34:26;100972.56;;;3.02;100.00
12172;BME280;6149;52.418;13.668;2023-04-26T04:36:54;100974.28;;;3.03;100.00
12172;BME280;6149;52.418;13.668;2023-04-26T04:39:32;100969.00;;;3.07;100.00
12172;BME280;6149;52.418;13.668;2023-04-26T04:42:00;100980.13;;;3.19;100.00
12172;BME280;6149;52.418;13.668;2023-04-26T04:44:26;100983.66;;;3.17;100.00
12172;BME280;6149;52.418;13.668;2023-04-26T04:47:01;100981.91;;;3.16;100.00
12172;BME280;6149;52.418;13.668;2023-04-26T04:49:31;100981.81;;;3.22;100.00
12172;BME280;6149;52.418;13.668;2023-04-26T04:51:59;100990.53;;;3.22;100.00
12172;BME280;6149;52.418;13.668;2023-04-26T04:54:42;100996.63;;;3.23;100.00
12172;BME280;6149;52.418;13.668;2023-04-26T04:57:09;100999.06;;;3.32;100.00
12172;BME280;6149;52.418;13.668;2023-04-26T04:59:38;100999.00;;;3.35;100.00
12172;BME280;6149;52.418;13.668;2023-04-26T05:02:07;100998.06;;;3.39;100.00
12172;BME280;6149;52.418;13.668;2023-04-26T05:04:35;101002.34;;;3.43;100.00
12172;BME280;6149;52.418;13.668;2023-04-26T05:07:03;101005.78;;;3.47;100.00
12172;BME280;6149;52.418;13.668;2023-04-26T05:09:33;101004.81;;;3.52;100.00
12172;BME280;6149;52.418;13.668;2023-04-26T05:12:03;101003.84;;;3.58;100.00
12172;BME280;6149;52.418;13.668;2023-04-26T05:14:31;101004.56;;;3.66;100.00
12172;BME280;6149;52.418;13.668;2023-04-26T05:16:59;101006.25;;;3.68;100.00
12172;BME280;6149;52.418;13.668;2023-04-26T05:19:29;101012.09;;;3.81;100.00
12172;BME280;6149;52.418;13.668;2023-04-26T05:21:57;101011.25;;;3.81;100.00
12172;BME280;6149;52.418;13.668;2023-04-26T05:24:29;101016.94;;;4.02;100.00
12172;BME280;6149;52.418;13.668;2023-04-26T05:27:02;101027.16;;;4.13;100.00
12172;BME280;6149;52.418;13.668;2023-04-26T05:29:30;101019.22;;;4.18;100.00
12172;BME280;6149;52.418;13.668;2023-04-26T05:31:58;101013.75;;;4.30;100.00
12172;BME280;6149;52.418;13.668;2023-04-26T05:34:27;101025.09;;;4.30;100.00
12172;BME280;6149;52.418;13.668;2023-04-26T05:36:58;101026.75;;;4.34;100.00
12172;BME280;6149;52.418;13.668;2023-04-26T05:39:28;101022.94;;;4.49;100.00
12172;BME280;6149;52.418;13.668;2023-04-26T05:42:00;101040.91;;;4.66;100.00
12172;BME280;6149;52.418;13.668;2023-04-26T05:44:30;101031.00;;;4.80;97.29
12172;BME280;6149;52.418;13.668;2023-04-26T05:47:01;101037.75;;;4.89;97.95
12172;BME280;6149;52.418;13.668;2023-04-26T05:49:31;101034.59;;;5.13;96.64
12172;BME280;6149;52.418;13.668;2023-04-26T05:51:59;101034.84;;;5.38;95.40
12172;BME280;6149;52.418;13.668;2023-04-26T05:54:29;101044.03;;;5.56;92.57
12172;BME280;6149;52.418;13.668;2023-04-26T05:57:03;101046.19;;;5.72;90.87
12172;BME280;6149;52.418;13.668;2023-04-26T05:59:35;101040.47;;;5.92;90.55
12172;BME280;6149;52.418;13.668;2023-04-26T06:02:02;101040.91;;;6.07;88.35
12172;BME280;6149;52.418;13.668;2023-04-26T06:04:33;101048.56;;;6.16;87.33
12172;BME280;6149;52.418;13.668;2023-04-26T06:07:01;101044.53;;;6.33;87.09
12172;BME280;6149;52.418;13.668;2023-04-26T06:09:30;101053.44;;;6.59;85.83
12172;BME280;6149;52.418;13.668;2023-04-26T06:12:00;101040.63;;;6.76;83.37
12172;BME280;6149;52.418;13.668;2023-04-26T06:14:30;101055.00;;;6.94;81.52
12172;BME280;6149;52.418;13.668;2023-04-26T06:16:57;101042.13;;;7.13;81.92
12172;BME280;6149;52.418;13.668;2023-04-26T06:19:27;101044.72;;;7.41;81.34
12172;BME280;6149;52.418;13.668;2023-04-26T06:21:56;101048.91;;;7.72;79.03
12172;BME280;6149;52.418;13.668;2023-04-26T06:24:26;101046.44;;;7.93;77.59
12172;BME280;6149;52.418;13.668;2023-04-26T06:27:10;101047.47;;;8.14;75.59
12172;BME280;6149;52.418;13.668;2023-04-26T06:29:38;101042.50;;;8.04;74.31
12172;BME280;6149;52.418;13.668;2023-04-26T06:32:07;101049.59;;;8.02;74.66
12172;BME280;6149;52.418;13.668;2023-04-26T06:34:34;101044.88;;;8.12;74.40
12172;BME280;6149;52.418;13.668;2023-04-26T06:37:03;101051.16;;;8.08;71.88
12172;BME280;6149;52.418;13.668;2023-04-26T06:39:31;101052.28;;;8.01;73.17
12172;BME280;6149;52.418;13.668;2023-04-26T06:42:03;101052.78;;;8.12;72.71
12172;BME280;6149;52.418;13.668;2023-04-26T06:44:31;101046.41;;;8.18;71.78
12172;BME280;6149;52.418;13.668;2023-04-26T06:46:59;101051.31;;;8.03;71.48
12172;BME280;6149;52.418;13.668;2023-04-26T06:49:27;101059.06;;;8.08;71.61
12172;BME280;6149;52.418;13.668;2023-04-26T06:52:03;101055.13;;;7.95;72.44
12172;BME280;6149;52.418;13.668;2023-04-26T06:54:32;101052.88;;;8.09;71.84
12172;BME280;6149;52.418;13.668;2023-04-26T06:57:00;101051.66;;;8.18;71.70
12172;BME280;6149;52.418;13.668;2023-04-26T06:59:30;101060.91;;;8.29;73.29
12172;BME280;6149;52.418;13.668;2023-04-26T07:01:58;101057.00;;;8.41;72.32
12172;BME280;6149;52.418;13.668;2023-04-26T07:04:33;101054.84;;;8.52;69.81
12172;BME280;6149;52.418;13.668;2023-04-26T07:07:00;101050.06;;;8.62;67.99
12172;BME280;6149;52.418;13.668;2023-04-26T07:09:31;101057.13;;;8.85;68.23
12172;BME280;6149;52.418;13.668;2023-04-26T07:12:00;101068.47;;;9.09;66.92
12172;BME280;6149;52.418;13.668;2023-04-26T07:14:28;101063.06;;;9.12;65.73
12172;BME280;6149;52.418;13.668;2023-04-26T07:16:58;101077.88;;;9.16;66.27
12172;BME280;6149;52.418;13.668;2023-04-26T07:19:30;101067.88;;;9.24;66.22
12172;BME280;6149;52.418;13.668;2023-04-26T07:21:57;101069.72;;;9.22;66.49
12172;BME280;6149;52.418;13.668;2023-04-26T07:24:29;101058.75;;;9.31;65.17
12172;BME280;6149;52.418;13.668;2023-04-26T07:27:01;101075.50;;;9.30;66.53
12172;BME280;6149;52.418;13.668;2023-04-26T07:29:30;101075.84;;;9.22;64.51
12172;BME280;6149;52.418;13.668;2023-04-26T07:31:58;101068.59;;;9.05;65.04
12172;BME280;6149;52.418;13.668;2023-04-26T07:34:25;101069.22;;;9.12;64.19
12172;BME280;6149;52.418;13.668;2023-04-26T07:36:51;101073.50;;;9.15;65.14
12172;BME280;6149;52.418;13.668;2023-04-26T07:39:19;101071.78;;;9.35;63.80
12172;BME280;6149;52.418;13.668;2023-04-26T07:41:47;101072.88;;;9.52;62.17
12172;BME280;6149;52.418;13.668;2023-04-26T07:44:15;101081.31;;;9.18;63.65
12172;BME280;6149;52.418;13.668;2023-04-26T07:46:44;101083.09;;;9.17;64.43
12172;BME280;6149;52.418;13.668;2023-04-26T07:49:12;101075.59;;;9.50;63.32
12172;BME280;6149;52.418;13.668;2023-04-26T07:51:42;101082.16;;;9.40;61.30
12172;BME280;6149;52.418;13.668;2023-04-26T07:54:10;101081.66;;;9.52;62.51
12172;BME280;6149;52.418;13.668;2023-04-26T07:56:38;101077.72;;;9.62;63.38
12172;BME280;6149;52.418;13.668;2023-04-26T07:59:05;101084.66;;;9.85;61.65
12172;BME280;6149;52.418;13.668;2023-04-26T08:01:35;101079.44;;;9.63;59.56
12172;BME280;6149;52.418;13.668;2023-04-26T08:04:08;101079.50;;;9.62;61.00
12172;BME280;6149;52.418;13.668;2023-04-26T08:06:36;101085.41;;;9.89;58.74
12172;BME280;6149;52.418;13.668;2023-04-26T08:09:04;101086.13;;;9.92;60.60
12172;BME280;6149;52.418;13.668;2023-04-26T08:11:32;101079.44;;;9.84;60.01
12172;BME280;6149;52.418;13.668;2023-04-26T08:14:02;101083.25;;;9.77;57.40
12172;BME280;6149;52.418;13.668;2023-04-26T08:16:30;101087.19;;;9.46;58.92
12172;BME280;6149;52.418;13.668;2023-04-26T08:19:00;101085.25;;;9.71;58.56
12172;BME280;6149;52.418;13.668;2023-04-26T08:21:40;101089.78;;;9.68;58.52
12172;BME280;6149;52.418;13.668;2023-04-26T08:24:08;101085.16;;;9.73;57.58
12172;BME280;6149;52.418;13.668;2023-04-26T08:26:36;101081.34;;;9.80;57.84
12172;BME280;6149;52.418;13.668;2023-04-26T08:29:03;101092.75;;;9.60;58.56
12172;BME280;6149;52.418;13.668;2023-04-26T08:31:32;101086.63;;;9.60;58.14
12172;BME280;6149;52.418;13.668;2023-04-26T08:34:03;101092.84;;;9.79;56.95
12172;BME280;6149;52.418;13.668;2023-04-26T08:36:37;101093.22;;;9.70;56.46
12172;BME280;6149;52.418;13.668;2023-04-26T08:39:05;101090.63;;;9.90;55.48
12172;BME280;6149;52.418;13.668;2023-04-26T08:41:37;101084.31;;;10.13;55.96
12172;BME280;6149;52.418;13.668;2023-04-26T08:44:10;101084.09;;;9.99;56.29
12172;BME280;6149;52.418;13.668;2023-04-26T08:46:43;101089.38;;;9.99;58.25
12172;BME280;6149;52.418;13.668;2023-04-26T08:49:21;101095.84;;;9.92;57.91
12172;BME280;6149;52.418;13.668;2023-04-26T08:52:08;101095.97;;;9.67;56.59
12172;BME280;6149;52.418;13.668;2023-04-26T08:54:38;101107.00;;;9.56;58.14
12172;BME280;6149;52.418;13.668;2023-04-26T08:57:07;101100.97;;;9.31;64.50
12172;BME280;6149;52.418;13.668;2023-04-26T08:59:36;101104.81;;;9.24;68.04
12172;BME280;6149;52.418;13.668;2023-04-26T09:02:06;101091.88;;;8.94;69.40
12172;BME280;6149;52.418;13.668;2023-04-26T09:04:34;101098.63;;;9.01;71.33
12172;BME280;6149;52.418;13.668;2023-04-26T09:07:05;101097.41;;;9.32;69.13
12172;BME280;6149;52.418;13.668;2023-04-26T09:09:35;101097.63;;;9.91;68.60
12172;BME280;6149;52.418;13.668;2023-04-26T09:12:08;101107.19;;;10.14;66.49
12172;BME280;6149;52.418;13.668;2023-04-26T09:14:37;101104.66;;;10.11;61.49
12172;BME280;6149;52.418;13.668;2023-04-26T09:17:05;101116.72;;;9.98;59.25
12172;BME280;6149;52.418;13.668;2023-04-26T09:19:51;101115.72;;;9.58;62.24
12172;BME280;6149;52.418;13.668;2023-04-26T09:22:35;101111.63;;;9.51;62.15
12172;BME280;6149;52.418;13.668;2023-04-26T09:25:05;101101.19;;;9.26;60.62
12172;BME280;6149;52.418;13.668;2023-04-26T09:27:37;101107.88;;;9.35;63.27
12172;BME280;6149;52.418;13.668;2023-04-26T09:30:09;101106.97;;;9.78;62.91
12172;BME280;6149;52.418;13.668;2023-04-26T09:32:46;101096.66;;;10.34;57.71
12172;BME280;6149;52.418;13.668;2023-04-26T09:35:25;101087.00;;;10.73;55.81
12172;BME280;6149;52.418;13.668;2023-04-26T09:38:10;101095.59;;;11.32;56.22
12172;BME280;6149;52.418;13.668;2023-04-26T09:40:39;101086.13;;;11.46;52.11
12172;BME280;6149;52.418;13.668;2023-04-26T09:43:10;101095.00;;;11.09;51.82
12172;BME280;6149;52.418;13.668;2023-04-26T09:45:48;101101.13;;;10.90;51.50
12172;BME280;6149;52.418;13.668;2023-04-26T09:48:18;101106.34;;;10.92;51.45
12172;BME280;6149;52.418;13.668;2023-04-26T09:50:48;101095.84;;;10.71;51.13
12172;BME280;6149;52.418;13.668;2023-04-26T09:53:35;101099.69;;;10.64;52.73
12172;BME280;6149;52.418;13.668;2023-04-26T09:56:09;101100.72;;;10.99;51.57
12172;BME280;6149;52.418;13.668;2023-04-26T09:58:39;101100.63;;;11.20;50.20
12172;BME280;6149;52.418;13.668;2023-04-26T10:01:25;101095.63;;;10.95;51.95
12172;BME280;6149;52.418;13.668;2023-04-26T10:04:00;101110.13;;;10.86;52.01
12172;BME280;6149;52.418;13.668;2023-04-26T10:06:30;101105.25;;;11.33;53.21
12172;BME280;6149;52.418;13.668;2023-04-26T10:09:08;101090.03;;;11.56;51.21
12172;BME280;6149;52.418;13.668;2023-04-26T10:11:37;101101.09;;;11.47;49.96
12172;BME280;6149;52.418;13.668;2023-04-26T10:14:05;101100.38;;;11.43;50.87
12172;BME280;6149;52.418;13.668;2023-04-26T10:16:34;101102.47;;;11.54;51.27
12172;BME280;6149;52.418;13.668;2023-04-26T10:19:02;101107.38;;;11.08;50.56
12172;BME280;6149;52.418;13.668;2023-04-26T10:21:33;101109.94;;;10.91;50.28
12172;BME280;6149;52.418;13.668;2023-04-26T10:24:06;101115.44;;;10.67;51.19
12172;BME280;6149;52.418;13.668;2023-04-26T10:26:48;101118.22;;;10.83;51.33
12172;BME280;6149;52.418;13.668;2023-04-26T10:29:19;101108.97;;;11.29;50.65
12172;BME280;6149;52.418;13.668;2023-04-26T10:32:06;101101.16;;;11.81;51.24
12172;BME280;6149;52.418;13.668;2023-04-26T10:34:36;101100.88;;;11.87;49.13
12172;BME280;6149;52.418;13.668;2023-04-26T10:37:09;101107.09;;;11.50;49.00
12172;BME280;6149;52.418;13.668;2023-04-26T10:39:41;101106.06;;;11.17;49.45
12172;BME280;6149;52.418;13.668;2023-04-26T10:42:20;101112.09;;;11.01;52.16
12172;BME280;6149;52.418;13.668;2023-04-26T10:44:50;101102.44;;;11.00;52.76
12172;BME280;6149;52.418;13.668;2023-04-26T10:47:24;101095.63;;;11.14;53.14
12172;BME280;6149;52.418;13.668;2023-04-26T10:50:05;101101.06;;;11.11;48.48
12172;BME280;6149;52.418;13.668;2023-04-26T10:52:35;101108.13;;;11.29;46.02
12172;BME280;6149;52.418;13.668;2023-04-26T10:55:06;101098.03;;;11.54;43.15
12172;BME280;6149;52.418;13.668;2023-04-26T10:57:49;101096.72;;;11.82;43.20
12172;BME280;6149;52.418;13.668;2023-04-26T11:00:29;101101.09;;;11.64;43.73
12172;BME280;6149;52.418;13.668;2023-04-26T11:03:03;101098.81;;;11.56;46.32
12172;BME280;6149;52.418;13.668;2023-04-26T11:05:50;101110.56;;;11.33;45.39
12172;BME280;6149;52.418;13.668;2023-04-26T11:08:20;101112.44;;;11.13;46.69
12172;BME280;6149;52.418;13.668;2023-04-26T11:10:59;101114.38;;;10.90;46.92
12172;BME280;6149;52.418;13.668;2023-04-26T11:13:37;101124.50;;;10.62;46.88
12172;BME280;6149;52.418;13.668;2023-04-26T11:16:06;101119.69;;;10.51;50.14
12172;BME280;6149;52.418;13.668;2023-04-26T11:18:39;101123.31;;;10.49;48.75
12172;BME280;6149;52.418;13.668;2023-04-26T11:21:08;101116.75;;;10.38;49.67
12172;BME280;6149;52.418;13.668;2023-04-26T11:23:39;101114.97;;;10.39;51.12
12172;BME280;6149;52.418;13.668;2023-04-26T11:26:12;101119.31;;;10.20;50.35
12172;BME280;6149;52.418;13.668;2023-04-26T11:28:40;101118.47;;;10.18;51.36
12172;BME280;6149;52.418;13.668;2023-04-26T11:31:09;101118.00;;;10.30;51.79
12172;BME280;6149;52.418;13.668;2023-04-26T11:33:40;101113.88;;;10.43;52.85
12172;BME280;6149;52.418;13.668;2023-04-26T11:36:07;101113.47;;;10.52;52.22
12172;BME280;6149;52.418;13.668;2023-04-26T11:38:36;101125.56;;;10.58;50.66
12172;BME280;6149;52.418;13.668;2023-04-26T11:41:04;101123.84;;;10.57;51.11
12172;BME280;6149;52.418;13.668;2023-04-26T11:43:37;101119.44;;;10.37;48.39
12172;BME280;6149;52.418;13.668;2023-04-26T11:46:07;101121.31;;;10.35;48.37
12172;BME280;6149;52.418;13.668;2023-04-26T11:48:34;101123.28;;;10.30;49.21
12172;BME280;6149;52.418;13.668;2023-04-26T11:51:07;101125.19;;;10.26;47.83
12172;BME280;6149;52.418;13.668;2023-04-26T11:53:38;101120.50;;;10.33;47.76
12172;BME280;6149;52.418;13.668;2023-04-26T11:56:13;101127.88;;;10.45;49.24
12172;BME280;6149;52.418;13.668;2023-04-26T11:58:47;101119.53;;;10.54;48.10
12172;BME280;6149;52.418;13.668;2023-04-26T12:01:22;101127.13;;;10.62;47.78
12172;BME280;6149;52.418;13.668;2023-04-26T12:03:51;101126.28;;;10.80;49.04
12172;BME280;6149;52.418;13.668;2023-04-26T12:06:25;101127.97;;;11.01;48.53
12172;BME280;6149;52.418;13.668;2023-04-26T12:08:56;101123.97;;;11.12;47.42
12172;BME280;6149;52.418;13.668;2023-04-26T12:11:23;101136.75;;;11.02;47.19
12172;BME280;6149;52.418;13.668;2023-04-26T12:13:56;101130.59;;;11.01;47.42
12172;BME280;6149;52.418;13.668;2023-04-26T12:16:25;101133.41;;;10.98;47.70
12172;BME280;6149;52.418;13.668;2023-04-26T12:18:53;101142.34;;;10.96;49.01
12172;BME280;6149;52.418;13.668;2023-04-26T12:21:23;101145.91;;;10.76;48.88
12172;BME280;6149;52.418;13.668;2023-04-26T12:23:52;101141.09;;;10.45;48.84
12172;BME280;6149;52.418;13.668;2023-04-26T12:26:20;101136.38;;;10.33;48.97
12172;BME280;6149;52.418;13.668;2023-04-26T12:28:47;101151.44;;;10.09;50.87
12172;BME280;6149;52.418;13.668;2023-04-26T12:31:16;101145.84;;;9.96;51.19
12172;BME280;6149;52.418;13.668;2023-04-26T12:33:44;101149.84;;;10.05;51.50
12172;BME280;6149;52.418;13.668;2023-04-26T12:36:12;101140.63;;;9.95;51.12
12172;BME280;6149;52.418;13.668;2023-04-26T12:38:40;101150.78;;;10.04;51.94
12172;BME280;6149;52.418;13.668;2023-04-26T12:41:08;101157.53;;;10.11;50.44
12172;BME280;6149;52.418;13.668;2023-04-26T12:43:36;101137.84;;;10.18;49.96
12172;BME280;6149;52.418;13.668;2023-04-26T12:46:04;101143.06;;;10.40;49.94
12172;BME280;6149;52.418;13.668;2023-04-26T12:48:36;101143.66;;;10.67;51.55
12172;BME280;6149;52.418;13.668;2023-04-26T12:51:04;101135.66;;;10.87;48.96
12172;BME280;6149;52.418;13.668;2023-04-26T12:53:33;101130.88;;;10.95;49.18
12172;BME280;6149;52.418;13.668;2023-04-26T12:56:00;101127.66;;;10.89;48.56
12172;BME280;6149;52.418;13.668;2023-04-26T12:58:32;101134.28;;;10.79;49.90
12172;BME280;6149;52.418;13.668;2023-04-26T13:01:02;101138.72;;;10.78;48.39
12172;BME280;6149;52.418;13.668;2023-04-26T13:03:30;101130.88;;;10.77;50.16
12172;BME280;6149;52.418;13.668;2023-04-26T13:06:05;101143.78;;;10.64;49.46
12172;BME280;6149;52.418;13.668;2023-04-26T13:08:32;101138.72;;;10.59;49.23
12172;BME280;6149;52.418;13.668;2023-04-26T13:11:03;101136.59;;;10.47;49.64